Venus, Pennsylvania
Current Conditions -  °F | °C
As of 8:35 AM on Friday 28 Nov 2014 (Local Time) from KFKL Reporting Station
Broken Clouds Broken Clouds  
Wind Chill: 10°   Ceiling: 2800
Heat Index: 21°   Visibility: 5mi
Dew Point: 16°   Wind: 10mph
Humidity: 80%   Direction: 270°W
Pressure: 30.26"   Gusts: NA
Location:  41.37°N, 79.48°W
Report Text: KFKL 281335Z AUTO 27009KT 5SM FEW016 SCT023 BKN028 M06/M09 A3026 RMK AO1
Loading
Personal Weather Stations






























Interactive Weather Map New forecast layout! Learn more

10-Day Weather Forecast

Advertisements
Track Severe Weather on mobile